This is the latest recevied weather packets stored in our database for station/object K7YVO. If no packets are shown the sender has not sent any weather packets the latest 10 day(s).
| Time | Temp. | Humidity | Pressure | Rain* | Wind** | Luminosity | Snow |
|---|---|---|---|---|---|---|---|
| 1777921946 | 15.56° C | 77% | 1015.6 hPa | 0 mm | - | 362 W/m² | - |
| 1777921641 | 15.56° C | 78% | 1015.8 hPa | 0 mm | - | 347 W/m² | - |
| 1777919516 | 14.44° C | 80% | 1015.9 hPa | 0 mm | - | 321 W/m² | - |
| 1777919214 | 14.44° C | 80% | 1015.9 hPa | 0 mm | - | 457 W/m² | - |
| 1777918306 | 13.89° C | 81% | 1015.9 hPa | 0 mm | - | 257 W/m² | - |
| 1777918005 | 13.89° C | 81% | 1015.8 hPa | 0 mm | - | 296 W/m² | - |
| 1777917704 | 13.89° C | 82% | 1015.5 hPa | 0 mm | - | 269 W/m² | - |
| 1777917097 | 14.44° C | 80% | 1015.6 hPa | 0 mm | - | 293 W/m² | - |
| 1777916189 | 13.33° C | 83% | 1015.6 hPa | 0 mm | - | 250 W/m² | - |
| 1777915886 | 13.33° C | 83% | 1015.6 hPa | 0 mm | - | 215 W/m² | - |
| 1777915582 | 13.33° C | 84% | 1015.5 hPa | 0 mm | - | 239 W/m² | - |
| 1777914369 | 13.33° C | 83% | 1015.6 hPa | 0 mm | - | 225 W/m² | - |
| 1777914067 | 12.78° C | 85% | 1015.8 hPa | 0 mm | - | 213 W/m² | - |
| 1777907089 | 12.22° C | 88% | 1015.4 hPa | 0 mm | - | 99 W/m² | - |
| 1777905877 | 11.67° C | 89% | 1015 hPa | 0 mm | - | 73 W/m² | - |
| 1777905574 | 11.67° C | 89% | 1015.1 hPa | 0 mm | - | 60 W/m² | - |
| 1777905271 | 11.67° C | 89% | 1015.1 hPa | 0 mm | - | 47 W/m² | - |
| 1777904968 | 11.67° C | 89% | 1015 hPa | 0 mm | - | 36 W/m² | - |
| 1777904362 | 11.67° C | 89% | 1014.7 hPa | 0 mm | - | 29 W/m² | - |
| 1777904059 | 11.67° C | 88% | 1014.7 hPa | 0 mm | - | 28 W/m² | - |
| 1777903756 | 11.67° C | 88% | 1014.7 hPa | 0 mm | - | 28 W/m² | - |
| 1777902239 | 11.67° C | 87% | 1014.2 hPa | 0 mm | - | 21 W/m² | - |
| 1777901937 | 11.67° C | 87% | 1014.2 hPa | 0 mm | - | 19 W/m² | - |
| 1777901635 | 11.67° C | 87% | 1014.2 hPa | 0 mm | - | 16 W/m² | - |
| 1777901332 | 11.67° C | 88% | 1014.1 hPa | 0 mm | - | 14 W/m² | - |
* Rain latest hour (hover to see other rain measurements)
** Current wind speed in m/s (hover to see current wind gust speed)